createdAt,value
2022-08-17T00:01:16.764Z,18.43
2022-08-17T00:03:46.542Z,18.42
2022-08-17T00:06:16.994Z,18.42
2022-08-17T00:08:46.031Z,18.41
2022-08-17T00:11:15.884Z,18.33
2022-08-17T00:13:45.466Z,18.31
2022-08-17T00:16:16.625Z,18.27
2022-08-17T00:19:06.162Z,18.41
2022-08-17T00:22:00.015Z,18.42
2022-08-17T00:24:20.214Z,18.43
2022-08-17T00:26:46.912Z,18.46
2022-08-17T00:29:19.430Z,18.26
2022-08-17T00:31:48.589Z,18.34
2022-08-17T00:34:15.195Z,18.48
2022-08-17T00:36:41.839Z,18.48
2022-08-17T00:39:08.402Z,18.46
2022-08-17T00:41:35.142Z,18.46
2022-08-17T00:44:05.100Z,18.44
2022-08-17T00:46:33.856Z,18.33
2022-08-17T00:49:02.378Z,18.38
2022-08-17T00:51:32.986Z,18.29
2022-08-17T00:54:05.140Z,18.42
2022-08-17T00:56:36.025Z,18.39
2022-08-17T00:59:05.057Z,18.37
2022-08-17T01:01:32.633Z,18.36
2022-08-17T01:04:01.202Z,18.34
2022-08-17T01:06:29.897Z,18.18
2022-08-17T01:08:58.973Z,18.27
2022-08-17T01:11:25.804Z,18.13
2022-08-17T01:13:52.685Z,18.09
2022-08-17T01:16:22.983Z,18.19
2022-08-17T01:18:53.021Z,18.19
2022-08-17T01:21:26.560Z,18.21
2022-08-17T01:23:55.552Z,18.18
2022-08-17T01:26:22.738Z,17.95
2022-08-17T01:28:54.687Z,17.87
2022-08-17T01:31:24.984Z,18.08
2022-08-17T01:33:51.673Z,18.07
2022-08-17T01:36:18.425Z,17.93
2022-08-17T01:38:45.131Z,18.06
2022-08-17T01:41:15.527Z,17.95
2022-08-17T01:43:47.379Z,17.93
2022-08-17T01:46:16.192Z,17.97
2022-08-17T01:48:42.761Z,17.93
2022-08-17T01:51:09.561Z,17.86
2022-08-17T01:53:40.331Z,17.78
2022-08-17T01:56:12.299Z,17.77
2022-08-17T01:58:42.067Z,17.69
2022-08-17T02:01:10.372Z,17.64
2022-08-17T02:03:37.823Z,17.60
2022-08-17T02:06:06.649Z,17.58
2022-08-17T02:09:03.074Z,17.45
2022-08-17T02:11:32.382Z,17.40
2022-08-17T02:14:03.383Z,17.47
2022-08-17T02:16:37.845Z,17.42
2022-08-17T02:19:06.880Z,17.26
2022-08-17T02:21:33.588Z,17.21
2022-08-17T02:24:00.519Z,17.10
2022-08-17T02:26:27.228Z,17.16
2022-08-17T02:28:53.850Z,17.24
2022-08-17T02:31:21.835Z,17.20
2022-08-17T02:34:03.295Z,17.16
2022-08-17T02:36:32.996Z,17.06
2022-08-17T02:39:00.258Z,17.05
2022-08-17T02:41:26.922Z,16.97
2022-08-17T02:43:53.470Z,16.99
2022-08-17T02:46:20.152Z,16.95
2022-08-17T02:48:48.082Z,16.93
2022-08-17T02:51:14.893Z,16.91
2022-08-17T02:53:41.460Z,16.86
2022-08-17T02:56:08.127Z,16.80
2022-08-17T02:58:36.101Z,16.71
2022-08-17T03:01:04.623Z,16.76
2022-08-17T03:03:31.560Z,16.77
2022-08-17T03:05:59.898Z,16.75
2022-08-17T03:08:26.874Z,16.75
2022-08-17T03:10:53.771Z,16.73
2022-08-17T03:13:20.433Z,16.51
2022-08-17T03:15:48.074Z,16.62
2022-08-17T03:18:19.103Z,16.57
2022-08-17T03:20:52.638Z,16.52
2022-08-17T03:23:24.116Z,16.48
2022-08-17T03:25:52.996Z,16.45
2022-08-17T03:28:20.315Z,16.41
2022-08-17T03:30:47.011Z,16.39
2022-08-17T03:33:13.777Z,16.38
2022-08-17T03:35:41.309Z,16.40
2022-08-17T03:38:09.052Z,16.39
2022-08-17T03:40:57.766Z,16.41
2022-08-17T03:43:25.227Z,16.39
2022-08-17T03:45:51.978Z,16.10
2022-08-17T03:48:20.494Z,16.35
2022-08-17T03:50:47.099Z,16.39
2022-08-17T03:53:17.332Z,16.27
2022-08-17T03:55:45.286Z,16.30
2022-08-17T03:58:11.899Z,16.43
2022-08-17T04:00:39.741Z,16.45
2022-08-17T04:03:06.512Z,16.44
2022-08-17T04:05:35.609Z,16.46
2022-08-17T04:08:02.298Z,16.35
2022-08-17T04:10:33.921Z,16.44
2022-08-17T04:13:06.499Z,16.41
2022-08-17T04:15:33.074Z,16.41
2022-08-17T04:18:00.085Z,16.40
2022-08-17T04:20:26.696Z,16.46
2022-08-17T04:22:58.075Z,16.44
2022-08-17T04:25:26.035Z,16.54
2022-08-17T04:27:52.739Z,16.57
2022-08-17T04:30:21.343Z,16.51
2022-08-17T04:33:04.467Z,16.57
2022-08-17T04:35:36.367Z,16.57
2022-08-17T04:38:02.947Z,16.58
2022-08-17T04:40:29.544Z,16.61
2022-08-17T04:43:01.205Z,16.30
2022-08-17T04:45:32.264Z,16.63
2022-08-17T04:47:59.777Z,16.67
2022-08-17T04:50:26.390Z,16.67
2022-08-17T04:52:52.990Z,16.71
2022-08-17T04:55:19.628Z,16.74
2022-08-17T04:57:46.289Z,16.79
2022-08-17T05:00:13.552Z,16.72
2022-08-17T05:02:49.925Z,16.86
2022-08-17T05:05:18.966Z,16.88
2022-08-17T05:07:45.535Z,16.94
2022-08-17T05:10:12.296Z,16.97
2022-08-17T05:12:38.882Z,17.04
2022-08-17T05:15:11.461Z,17.09
2022-08-17T05:17:38.102Z,17.11
2022-08-17T05:20:07.294Z,17.14
2022-08-17T05:22:33.912Z,17.16
2022-08-17T05:25:02.708Z,17.15
2022-08-17T05:27:35.149Z,17.17
2022-08-17T05:30:02.237Z,16.94
2022-08-17T05:32:37.869Z,17.27
2022-08-17T05:35:09.137Z,17.29
2022-08-17T05:37:35.767Z,17.39
2022-08-17T05:40:02.551Z,17.52
2022-08-17T05:42:29.187Z,17.43
2022-08-17T05:44:57.685Z,17.55
2022-08-17T05:47:26.111Z,17.65
2022-08-17T05:49:53.841Z,17.79
2022-08-17T05:52:33.287Z,17.87
2022-08-17T05:55:13.676Z,17.96
2022-08-17T05:57:54.086Z,18.05
2022-08-17T06:00:30.673Z,18.11
2022-08-17T06:03:18.667Z,18.25
2022-08-17T06:05:58.115Z,18.38
2022-08-17T06:08:34.099Z,18.48
2022-08-17T06:11:10.382Z,18.58
2022-08-17T06:13:55.927Z,18.69
2022-08-17T06:16:26.315Z,18.77
2022-08-17T06:19:05.635Z,18.82
2022-08-17T06:21:36.086Z,18.97
2022-08-17T06:24:07.189Z,19.07
2022-08-17T06:26:43.051Z,19.14
2022-08-17T06:29:20.875Z,19.23
2022-08-17T06:31:47.572Z,19.35
2022-08-17T06:34:14.243Z,19.41
2022-08-17T06:36:52.059Z,19.57
2022-08-17T06:39:34.320Z,19.69
2022-08-17T06:43:02.331Z,19.83
2022-08-17T06:45:07.146Z,19.96
2022-08-17T06:47:42.384Z,19.99
2022-08-17T06:50:17.925Z,20.09
2022-08-17T06:52:52.646Z,20.26
2022-08-17T06:55:25.182Z,20.44
2022-08-17T06:57:58.067Z,20.47
2022-08-17T07:00:29.711Z,20.58
2022-08-17T07:03:02.523Z,20.74
2022-08-17T07:05:35.411Z,20.88
2022-08-17T07:08:08.446Z,21.14
2022-08-17T07:10:42.591Z,21.20
2022-08-17T07:13:22.287Z,21.46
2022-08-17T07:15:56.414Z,21.44
2022-08-17T07:18:26.439Z,21.82
2022-08-17T07:20:58.092Z,22.01
2022-08-17T07:23:34.851Z,22.02
2022-08-17T07:26:05.800Z,22.18
2022-08-17T07:28:33.709Z,22.35
2022-08-17T07:31:00.540Z,22.41
2022-08-17T07:44:19.118Z,23.06
2022-08-17T07:46:50.438Z,23.11
2022-08-17T07:49:21.836Z,23.23
2022-08-17T07:52:47.710Z,23.40
2022-08-17T07:54:47.771Z,23.61
2022-08-17T07:57:31.447Z,23.96
2022-08-17T08:00:16.884Z,23.99
2022-08-17T08:02:46.342Z,24.22
2022-08-17T08:05:30.672Z,24.24
2022-08-17T08:08:23.834Z,24.54
2022-08-17T08:10:59.965Z,24.54
2022-08-17T08:13:28.539Z,24.82
2022-08-17T08:16:14.599Z,24.94
2022-08-17T08:18:55.327Z,24.97
2022-08-17T08:21:36.299Z,25.05
2022-08-17T08:24:23.318Z,25.11
2022-08-17T08:27:02.155Z,25.14
2022-08-17T08:29:40.255Z,25.14
2022-08-17T08:32:16.009Z,25.06
2022-08-17T08:35:02.608Z,25.04
2022-08-17T08:37:42.657Z,24.96
2022-08-17T08:40:43.126Z,25.02
2022-08-17T08:43:21.203Z,24.94
2022-08-17T08:46:01.072Z,24.86
2022-08-17T08:48:58.694Z,24.89
2022-08-17T08:51:37.638Z,24.91
2022-08-17T08:54:15.556Z,24.91
2022-08-17T08:57:19.480Z,24.89
2022-08-17T08:59:44.312Z,24.68
2022-08-17T09:02:23.881Z,24.78
2022-08-17T09:05:16.388Z,24.72
2022-08-17T09:07:51.832Z,24.66
2022-08-17T09:10:29.413Z,24.61
2022-08-17T09:13:09.820Z,24.59
2022-08-17T09:15:41.984Z,24.44
2022-08-17T09:19:01.293Z,24.40
2022-08-17T09:21:07.530Z,24.46
2022-08-17T09:23:39.016Z,24.40
2022-08-17T09:26:11.710Z,24.38
2022-08-17T09:28:41.063Z,24.37
2022-08-17T09:31:11.281Z,24.30
2022-08-17T09:33:43.159Z,24.33
2022-08-17T09:36:17.547Z,24.31
2022-08-17T09:38:55.056Z,24.23
2022-08-17T09:41:26.623Z,24.17
2022-08-17T09:44:06.401Z,24.16
2022-08-17T09:46:40.762Z,24.17
2022-08-17T09:49:14.618Z,24.25
2022-08-17T09:51:48.503Z,24.35
2022-08-17T09:54:38.587Z,24.43
2022-08-17T09:57:35.823Z,24.58
2022-08-17T10:00:14.502Z,24.86
2022-08-17T10:03:15.954Z,25.07
2022-08-17T10:05:43.953Z,25.28
2022-08-17T10:08:21.817Z,25.48
2022-08-17T10:10:56.352Z,25.90
2022-08-17T10:13:35.652Z,26.21
2022-08-17T10:16:12.128Z,26.40
2022-08-17T10:18:47.563Z,26.64
2022-08-17T10:21:16.508Z,26.82
2022-08-17T10:23:47.122Z,27.06
2022-08-17T10:26:18.717Z,27.25
2022-08-17T10:28:53.772Z,27.38
2022-08-17T10:31:35.457Z,27.43
2022-08-17T10:34:32.271Z,27.24
2022-08-17T10:37:28.715Z,27.23
2022-08-17T10:40:19.257Z,27.45
2022-08-17T10:42:50.041Z,27.62
2022-08-17T10:45:19.735Z,27.77
2022-08-17T10:47:58.115Z,27.80
2022-08-17T10:50:57.278Z,28.10
2022-08-17T10:53:50.098Z,28.20
2022-08-17T10:56:43.582Z,28.24
2022-08-17T10:59:50.433Z,28.05
2022-08-17T11:02:24.404Z,28.16
2022-08-17T11:05:01.171Z,28.45
2022-08-17T11:07:44.667Z,28.64
2022-08-17T11:10:27.585Z,28.43
2022-08-17T11:13:03.856Z,28.44
2022-08-17T11:15:47.499Z,28.42
2022-08-17T11:18:28.574Z,28.46
2022-08-17T11:21:17.353Z,28.10
2022-08-17T11:23:56.610Z,28.15
2022-08-17T11:26:27.301Z,28.04
2022-08-17T11:29:08.211Z,28.23
2022-08-17T11:31:37.971Z,28.29
2022-08-17T11:34:13.450Z,28.56
2022-08-17T11:37:18.998Z,28.52
2022-08-17T11:40:00.262Z,28.55
2022-08-17T11:42:39.407Z,28.63
2022-08-17T11:45:32.366Z,28.70
2022-08-17T11:48:27.206Z,28.75
2022-08-17T11:50:59.931Z,28.78
2022-08-17T11:54:21.608Z,28.91
2022-08-17T11:56:47.983Z,29.06
2022-08-17T11:59:51.907Z,29.40
2022-08-17T12:02:45.589Z,29.39
2022-08-17T12:05:34.451Z,29.16
2022-08-17T12:08:19.051Z,28.84
2022-08-17T12:11:00.091Z,28.91
2022-08-17T12:13:38.539Z,29.08
2022-08-17T12:16:07.382Z,29.19
2022-08-17T12:18:36.745Z,29.52
2022-08-17T12:21:28.695Z,29.74
2022-08-17T12:24:00.319Z,29.86
2022-08-17T12:26:31.406Z,29.84
2022-08-17T12:29:01.141Z,30.01
2022-08-17T12:31:30.861Z,30.08
2022-08-17T12:33:58.960Z,30.31
2022-08-17T12:36:27.680Z,30.47
2022-08-17T12:38:57.571Z,30.60
2022-08-17T12:41:37.099Z,30.75
2022-08-17T12:44:06.104Z,30.52
2022-08-17T12:46:44.407Z,30.73
2022-08-17T12:49:20.123Z,31.00
2022-08-17T12:51:47.668Z,31.17
2022-08-17T12:54:29.278Z,31.36
2022-08-17T12:56:57.284Z,31.48
2022-08-17T12:59:29.803Z,31.63
2022-08-17T13:01:57.805Z,31.72
2022-08-17T13:04:26.498Z,31.86
2022-08-17T13:06:59.790Z,31.15
2022-08-17T13:09:35.290Z,31.42
2022-08-17T13:12:03.270Z,31.57
2022-08-17T13:14:33.347Z,31.46
2022-08-17T13:17:02.164Z,31.55
2022-08-17T13:19:40.687Z,31.42
2022-08-17T13:22:11.750Z,31.74
2022-08-17T13:24:48.360Z,31.90
2022-08-17T13:27:15.054Z,32.06
2022-08-17T13:29:51.270Z,31.90
2022-08-17T13:32:21.906Z,32.17
2022-08-17T13:35:14.910Z,32.11
2022-08-17T13:37:38.322Z,31.53
2022-08-17T13:40:35.507Z,32.01
2022-08-17T13:43:02.722Z,32.43
2022-08-17T13:45:43.590Z,31.90
2022-08-17T13:48:19.335Z,32.36
2022-08-17T13:51:03.211Z,32.78
2022-08-17T13:53:32.990Z,32.45
2022-08-17T13:56:02.244Z,32.29
2022-08-17T13:58:34.222Z,31.79
2022-08-17T14:01:28.621Z,31.87
2022-08-17T14:03:55.500Z,31.59
2022-08-17T14:06:51.820Z,31.14
2022-08-17T14:09:12.259Z,30.90
2022-08-17T14:11:38.860Z,31.05
2022-08-17T14:14:05.500Z,30.51
2022-08-17T14:16:32.121Z,30.19
2022-08-17T14:18:58.854Z,30.31
2022-08-17T14:21:26.818Z,30.24
2022-08-17T14:23:54.911Z,30.20
2022-08-17T14:26:21.767Z,30.12
2022-08-17T14:28:56.303Z,30.02
2022-08-17T14:31:23.630Z,30.00
2022-08-17T14:33:50.214Z,29.83
2022-08-17T14:36:16.860Z,29.96
2022-08-17T14:38:45.012Z,30.01
2022-08-17T14:41:11.761Z,30.27
2022-08-17T14:43:38.325Z,30.55
2022-08-17T14:46:05.143Z,30.88
2022-08-17T14:48:31.699Z,31.16
2022-08-17T14:50:58.459Z,31.29
2022-08-17T14:53:25.053Z,30.65
2022-08-17T14:55:53.103Z,30.35
2022-08-17T14:58:19.688Z,30.70
2022-08-17T15:00:46.430Z,31.03
2022-08-17T15:03:13.001Z,31.29
2022-08-17T15:05:40.136Z,31.39
2022-08-17T15:08:07.997Z,31.46
2022-08-17T15:10:36.121Z,31.72
2022-08-17T15:13:04.050Z,31.81
2022-08-17T15:15:31.106Z,31.48
2022-08-17T15:17:58.253Z,31.66
2022-08-17T15:20:27.705Z,31.32
2022-08-17T15:22:56.097Z,30.91
2022-08-17T15:25:24.169Z,30.78
2022-08-17T15:27:50.993Z,30.56
2022-08-17T15:30:20.173Z,30.66
2022-08-17T15:32:54.274Z,31.04
2022-08-17T15:35:27.930Z,31.45
2022-08-17T15:37:56.246Z,31.61
2022-08-17T15:40:22.807Z,31.68
2022-08-17T15:42:49.463Z,31.50
2022-08-17T15:45:16.027Z,31.61
2022-08-17T15:47:44.326Z,31.92
2022-08-17T15:50:11.049Z,32.10
2022-08-17T15:52:37.697Z,32.33
2022-08-17T15:55:06.570Z,32.42
2022-08-17T15:57:33.259Z,32.31
2022-08-17T15:59:59.900Z,32.20
2022-08-17T16:03:15.878Z,32.09
2022-08-17T16:05:24.073Z,32.00
2022-08-17T16:07:51.743Z,32.12
2022-08-17T16:10:19.437Z,32.17
2022-08-17T16:12:47.574Z,32.41
2022-08-17T16:15:15.053Z,32.22
2022-08-17T16:17:41.701Z,32.49
2022-08-17T16:20:09.283Z,32.85
2022-08-17T16:22:49.991Z,33.00
2022-08-17T16:25:17.778Z,33.14
2022-08-17T16:27:45.379Z,32.70
2022-08-17T16:30:17.375Z,32.95
2022-08-17T16:32:44.927Z,32.93
2022-08-17T16:35:13.125Z,33.13
2022-08-17T16:37:39.744Z,33.23
2022-08-17T16:40:11.058Z,32.91
2022-08-17T16:42:38.846Z,32.87
2022-08-17T16:45:08.532Z,32.96
2022-08-17T16:47:35.768Z,33.05
2022-08-17T16:50:02.493Z,32.77
2022-08-17T16:52:32.398Z,33.00
2022-08-17T16:55:01.324Z,32.89
2022-08-17T16:57:29.959Z,33.13
2022-08-17T16:59:56.966Z,33.33
2022-08-17T17:02:28.716Z,33.45
2022-08-17T17:05:01.960Z,33.25
2022-08-17T17:07:44.064Z,33.23
2022-08-17T17:10:14.252Z,33.47
2022-08-17T17:13:02.870Z,33.02
2022-08-17T17:15:42.803Z,33.01
2022-08-17T17:18:12.525Z,33.22
2022-08-17T17:20:45.692Z,33.15
2022-08-17T17:23:27.883Z,33.12
2022-08-17T17:26:02.892Z,33.34
2022-08-17T17:28:37.929Z,33.27
2022-08-17T17:31:13.706Z,33.44
2022-08-17T17:33:44.496Z,33.28
2022-08-17T17:36:23.734Z,32.67
2022-08-17T17:38:54.078Z,31.98
2022-08-17T17:41:26.493Z,31.68
2022-08-17T17:44:01.892Z,31.22
2022-08-17T17:46:35.026Z,30.91
2022-08-17T17:49:01.704Z,30.21
2022-08-17T17:52:03.658Z,29.97
2022-08-17T17:54:38.082Z,29.86
2022-08-17T17:57:15.168Z,29.73
2022-08-17T17:59:55.074Z,29.57
2022-08-17T18:02:35.384Z,29.24
2022-08-17T18:05:08.531Z,29.16
2022-08-17T18:07:42.682Z,28.98
2022-08-17T18:10:29.603Z,28.82
2022-08-17T18:13:10.354Z,28.65
2022-08-17T18:15:44.879Z,28.49
2022-08-17T18:18:34.174Z,28.23
2022-08-17T18:21:03.560Z,27.96
2022-08-17T18:23:30.131Z,27.83
2022-08-17T18:25:57.438Z,27.70
2022-08-17T18:28:28.031Z,27.56
2022-08-17T18:31:15.643Z,27.40
2022-08-17T18:33:44.413Z,27.23
2022-08-17T18:36:11.930Z,27.02
2022-08-17T18:38:40.533Z,26.95
2022-08-17T18:41:18.584Z,26.76
2022-08-17T18:43:57.514Z,26.60
2022-08-17T18:46:32.913Z,26.40
2022-08-17T18:49:01.986Z,26.26
2022-08-17T18:51:40.816Z,26.12
2022-08-17T18:54:17.792Z,25.91
2022-08-17T18:56:49.778Z,25.72
2022-08-17T18:59:27.291Z,25.59
2022-08-17T19:02:09.965Z,25.34
2022-08-17T19:04:41.790Z,25.16
2022-08-17T19:07:23.551Z,25.11
2022-08-17T19:09:53.964Z,24.97
2022-08-17T19:12:27.369Z,24.87
2022-08-17T19:14:56.402Z,24.67
2022-08-17T19:17:30.619Z,24.68
2022-08-17T19:20:02.192Z,24.52
2022-08-17T19:22:44.507Z,24.37
2022-08-17T19:25:16.112Z,24.19
2022-08-17T19:27:50.282Z,24.03
2022-08-17T19:30:17.684Z,23.89
2022-08-17T19:32:45.778Z,23.79
2022-08-17T19:35:17.399Z,23.68
2022-08-17T19:37:57.730Z,23.50
2022-08-17T19:44:00.770Z,23.04
2022-08-17T19:46:35.632Z,22.96
2022-08-17T19:49:13.941Z,22.87
2022-08-17T19:51:47.400Z,22.72
2022-08-17T19:54:22.149Z,22.70
2022-08-17T19:56:59.164Z,22.59
2022-08-17T19:59:44.379Z,22.50
2022-08-17T20:02:30.542Z,22.36
2022-08-17T20:05:01.571Z,22.34
2022-08-17T20:07:37.056Z,22.26
2022-08-17T20:10:08.413Z,22.12
2022-08-17T20:12:36.018Z,22.06
2022-08-17T20:15:08.567Z,22.02
2022-08-17T20:17:37.519Z,21.96
2022-08-17T20:20:26.002Z,21.81
2022-08-17T20:23:02.350Z,21.76
2022-08-17T20:25:36.276Z,21.76
2022-08-17T20:28:15.195Z,21.58
2022-08-17T20:30:43.428Z,21.58
2022-08-17T20:33:24.190Z,21.48
2022-08-17T20:36:11.711Z,21.41
2022-08-17T20:38:42.510Z,21.22
2022-08-17T20:41:12.641Z,21.22
2022-08-17T20:43:49.070Z,21.18
2022-08-17T20:46:51.586Z,21.06
2022-08-17T20:49:24.718Z,20.98
2022-08-17T20:52:00.582Z,20.91
2022-08-17T20:54:42.947Z,20.86
2022-08-17T20:57:30.037Z,20.82
2022-08-17T21:00:02.778Z,20.65
2022-08-17T21:02:29.635Z,20.74
2022-08-17T21:05:07.208Z,20.73
2022-08-17T21:07:53.125Z,20.70
2022-08-17T21:10:32.019Z,20.62
2022-08-17T21:13:19.859Z,20.53
2022-08-17T21:15:51.605Z,20.43
2022-08-17T21:18:27.390Z,20.38
2022-08-17T21:21:08.655Z,20.31
2022-08-17T21:23:58.363Z,20.25
2022-08-17T21:26:32.738Z,20.16
2022-08-17T21:29:17.844Z,20.00
2022-08-17T21:32:19.252Z,20.01
2022-08-17T21:35:23.408Z,19.97
2022-08-17T21:37:53.066Z,19.95
2022-08-17T21:40:25.990Z,19.87
2022-08-17T21:42:55.382Z,19.81
2022-08-17T21:45:26.419Z,19.76
2022-08-17T21:48:09.376Z,19.66
2022-08-17T21:50:36.746Z,19.61
2022-08-17T21:53:05.041Z,19.60
2022-08-17T21:55:36.127Z,19.55
2022-08-17T21:58:13.597Z,19.37
2022-08-17T22:00:41.113Z,19.50
2022-08-17T22:03:22.834Z,19.50
2022-08-17T22:05:49.549Z,19.44
2022-08-17T22:08:20.169Z,19.30
2022-08-17T22:10:49.035Z,19.28
2022-08-17T22:13:22.331Z,19.24
2022-08-17T22:16:15.454Z,19.17
2022-08-17T22:18:54.761Z,19.18
2022-08-17T22:21:22.595Z,19.18
2022-08-17T22:24:04.201Z,19.08
2022-08-17T22:27:01.726Z,19.12
2022-08-17T22:29:53.335Z,19.06
2022-08-17T22:32:34.374Z,18.86
2022-08-17T22:35:29.049Z,18.83
2022-08-17T22:37:56.257Z,18.85
2022-08-17T22:40:28.857Z,18.84
2022-08-17T22:42:58.015Z,18.80
2022-08-17T22:45:25.877Z,18.66
2022-08-17T22:47:55.267Z,18.78
2022-08-17T22:50:24.227Z,18.74
2022-08-17T22:52:59.594Z,18.70
2022-08-17T22:55:27.680Z,18.68
2022-08-17T22:57:54.310Z,18.66
2022-08-17T23:00:31.535Z,18.67
2022-08-17T23:03:11.963Z,18.66
2022-08-17T23:05:40.846Z,18.61
2022-08-17T23:08:07.709Z,18.57
2022-08-17T23:10:34.325Z,18.56
2022-08-17T23:13:00.955Z,18.46
2022-08-17T23:15:29.048Z,18.55
2022-08-17T23:17:55.689Z,18.56
2022-08-17T23:20:22.325Z,18.53
2022-08-17T23:22:52.163Z,18.53
2022-08-17T23:25:25.587Z,18.41
2022-08-17T23:27:52.509Z,18.48
2022-08-17T23:30:19.362Z,18.44
2022-08-17T23:32:47.454Z,18.42
2022-08-17T23:35:39.650Z,18.36
2022-08-17T23:38:08.132Z,18.29
2022-08-17T23:40:34.738Z,18.22
2022-08-17T23:43:05.817Z,18.19
2022-08-17T23:45:36.558Z,18.15
2022-08-17T23:48:15.577Z,18.13
2022-08-17T23:50:56.054Z,18.09
2022-08-17T23:53:22.972Z,18.04
2022-08-17T23:56:03.709Z,18.00
2022-08-17T23:58:36.739Z,17.97
